sensor_id;sensor_type;location;lat;lon;timestamp;temperature;humidity
3402;DHT22;1714;49.756;8.610;2022-07-06T00:04:59;18.50;25.20
3402;DHT22;1714;49.756;8.610;2022-07-06T00:15:00;18.40;24.80
3402;DHT22;1714;49.756;8.610;2022-07-06T00:36:31;18.00;26.40
3402;DHT22;1714;49.756;8.610;2022-07-06T00:46:33;17.80;27.40
3402;DHT22;1714;49.756;8.610;2022-07-06T00:56:37;17.70;28.10
3402;DHT22;1714;49.756;8.610;2022-07-06T01:06:39;17.60;28.30
3402;DHT22;1714;49.756;8.610;2022-07-06T01:16:42;17.40;30.60
3402;DHT22;1714;49.756;8.610;2022-07-06T01:26:45;17.30;30.90
3402;DHT22;1714;49.756;8.610;2022-07-06T01:36:50;17.30;32.20
3402;DHT22;1714;49.756;8.610;2022-07-06T01:46:52;17.20;30.80
3402;DHT22;1714;49.756;8.610;2022-07-06T01:56:54;17.10;31.50
3402;DHT22;1714;49.756;8.610;2022-07-06T02:06:57;17.00;31.40
3402;DHT22;1714;49.756;8.610;2022-07-06T02:16:58;17.10;30.30
3402;DHT22;1714;49.756;8.610;2022-07-06T02:26:59;16.90;32.60
3402;DHT22;1714;49.756;8.610;2022-07-06T02:37:02;16.90;33.10
3402;DHT22;1714;49.756;8.610;2022-07-06T02:47:04;16.90;31.60
3402;DHT22;1714;49.756;8.610;2022-07-06T02:57:05;16.70;32.10
3402;DHT22;1714;49.756;8.610;2022-07-06T03:07:08;16.80;34.00
3402;DHT22;1714;49.756;8.610;2022-07-06T03:17:15;16.60;34.60
3402;DHT22;1714;49.756;8.610;2022-07-06T03:27:17;16.60;35.50
3402;DHT22;1714;49.756;8.610;2022-07-06T03:37:19;16.30;38.00
3402;DHT22;1714;49.756;8.610;2022-07-06T03:47:21;16.50;36.10
3402;DHT22;1714;49.756;8.610;2022-07-06T03:57:23;16.30;35.50
3402;DHT22;1714;49.756;8.610;2022-07-06T04:07:30;16.40;35.90
3402;DHT22;1714;49.756;8.610;2022-07-06T04:17:32;16.20;37.10
3402;DHT22;1714;49.756;8.610;2022-07-06T04:28:20;16.20;37.60
3402;DHT22;1714;49.756;8.610;2022-07-06T04:38:22;16.40;36.90
3402;DHT22;1714;49.756;8.610;2022-07-06T04:48:29;16.70;35.60
3402;DHT22;1714;49.756;8.610;2022-07-06T04:58:31;16.70;36.20
3402;DHT22;1714;49.756;8.610;2022-07-06T05:08:34;16.80;34.30
3402;DHT22;1714;49.756;8.610;2022-07-06T05:18:36;16.80;35.30
3402;DHT22;1714;49.756;8.610;2022-07-06T05:28:38;17.00;33.60
3402;DHT22;1714;49.756;8.610;2022-07-06T05:38:43;17.10;34.80
3402;DHT22;1714;49.756;8.610;2022-07-06T05:48:45;17.20;32.50
3402;DHT22;1714;49.756;8.610;2022-07-06T05:59:05;17.40;32.40
3402;DHT22;1714;49.756;8.610;2022-07-06T06:09:08;17.50;32.50
3402;DHT22;1714;49.756;8.610;2022-07-06T06:19:11;17.50;31.40
3402;DHT22;1714;49.756;8.610;2022-07-06T06:29:13;17.60;30.10
3402;DHT22;1714;49.756;8.610;2022-07-06T06:39:14;17.80;29.50
3402;DHT22;1714;49.756;8.610;2022-07-06T06:49:16;17.80;29.30
3402;DHT22;1714;49.756;8.610;2022-07-06T06:59:18;18.00;27.90
3402;DHT22;1714;49.756;8.610;2022-07-06T07:09:20;18.10;27.60
3402;DHT22;1714;49.756;8.610;2022-07-06T07:19:22;18.50;26.60
3402;DHT22;1714;49.756;8.610;2022-07-06T07:29:24;18.90;25.60
3402;DHT22;1714;49.756;8.610;2022-07-06T07:39:26;18.90;23.50
3402;DHT22;1714;49.756;8.610;2022-07-06T07:49:27;19.60;22.30
3402;DHT22;1714;49.756;8.610;2022-07-06T07:59:29;20.10;22.60
3402;DHT22;1714;49.756;8.610;2022-07-06T08:09:31;20.00;21.70
3402;DHT22;1714;49.756;8.610;2022-07-06T08:19:33;20.00;20.00
3402;DHT22;1714;49.756;8.610;2022-07-06T08:29:34;20.70;19.60
3402;DHT22;1714;49.756;8.610;2022-07-06T08:39:36;21.80;14.20
3402;DHT22;1714;49.756;8.610;2022-07-06T08:49:38;21.20;15.20
3402;DHT22;1714;49.756;8.610;2022-07-06T08:59:40;21.40;14.20
3402;DHT22;1714;49.756;8.610;2022-07-06T09:09:43;21.50;13.80
3402;DHT22;1714;49.756;8.610;2022-07-06T09:19:47;22.60;13.60
3402;DHT22;1714;49.756;8.610;2022-07-06T09:29:48;23.20;11.70
3402;DHT22;1714;49.756;8.610;2022-07-06T09:39:50;22.60;11.50
3402;DHT22;1714;49.756;8.610;2022-07-06T09:49:57;23.20;10.20
3402;DHT22;1714;49.756;8.610;2022-07-06T10:00:00;23.20;9.30
3402;DHT22;1714;49.756;8.610;2022-07-06T10:10:12;23.80;8.40
3402;DHT22;1714;49.756;8.610;2022-07-06T10:20:15;23.70;9.50
3402;DHT22;1714;49.756;8.610;2022-07-06T10:30:18;25.10;7.80
3402;DHT22;1714;49.756;8.610;2022-07-06T10:40:37;24.50;9.40
3402;DHT22;1714;49.756;8.610;2022-07-06T10:51:00;25.60;5.40
3402;DHT22;1714;49.756;8.610;2022-07-06T11:01:02;24.50;7.60
3402;DHT22;1714;49.756;8.610;2022-07-06T11:11:17;24.00;6.20
3402;DHT22;1714;49.756;8.610;2022-07-06T11:21:33;25.40;4.30
3402;DHT22;1714;49.756;8.610;2022-07-06T11:31:45;25.60;3.50
3402;DHT22;1714;49.756;8.610;2022-07-06T11:41:49;26.10;4.90
3402;DHT22;1714;49.756;8.610;2022-07-06T11:51:55;26.00;2.90
3402;DHT22;1714;49.756;8.610;2022-07-06T12:02:03;25.90;2.10
3402;DHT22;1714;49.756;8.610;2022-07-06T12:12:08;26.80;1.90
3402;DHT22;1714;49.756;8.610;2022-07-06T12:22:11;27.00;1.60
3402;DHT22;1714;49.756;8.610;2022-07-06T12:32:20;27.20;1.00
3402;DHT22;1714;49.756;8.610;2022-07-06T12:42:27;27.30;1.00
3402;DHT22;1714;49.756;8.610;2022-07-06T12:52:29;27.60;1.00
3402;DHT22;1714;49.756;8.610;2022-07-06T13:02:33;28.10;1.00
3402;DHT22;1714;49.756;8.610;2022-07-06T13:13:02;28.00;1.00
3402;DHT22;1714;49.756;8.610;2022-07-06T13:23:06;27.90;1.00
3402;DHT22;1714;49.756;8.610;2022-07-06T13:33:08;28.60;1.00
3402;DHT22;1714;49.756;8.610;2022-07-06T13:43:09;28.60;1.00
3402;DHT22;1714;49.756;8.610;2022-07-06T13:53:11;28.00;1.00
3402;DHT22;1714;49.756;8.610;2022-07-06T14:03:15;28.40;1.00
3402;DHT22;1714;49.756;8.610;2022-07-06T14:13:17;28.10;1.00
3402;DHT22;1714;49.756;8.610;2022-07-06T14:23:19;27.90;1.00
3402;DHT22;1714;49.756;8.610;2022-07-06T14:33:21;27.90;1.00
3402;DHT22;1714;49.756;8.610;2022-07-06T14:43:23;27.40;1.50
3402;DHT22;1714;49.756;8.610;2022-07-06T14:53:26;27.20;1.00
3402;DHT22;1714;49.756;8.610;2022-07-06T15:03:28;26.90;1.00
3402;DHT22;1714;49.756;8.610;2022-07-06T15:13:30;26.10;1.50
3402;DHT22;1714;49.756;8.610;2022-07-06T15:23:32;25.10;2.00
3402;DHT22;1714;49.756;8.610;2022-07-06T15:33:34;24.90;2.80
3402;DHT22;1714;49.756;8.610;2022-07-06T15:43:36;24.90;4.10
3402;DHT22;1714;49.756;8.610;2022-07-06T15:53:38;24.80;3.60
3402;DHT22;1714;49.756;8.610;2022-07-06T16:03:41;24.40;4.00
3402;DHT22;1714;49.756;8.610;2022-07-06T16:13:43;24.10;4.40
3402;DHT22;1714;49.756;8.610;2022-07-06T16:23:54;23.70;8.10
3402;DHT22;1714;49.756;8.610;2022-07-06T16:33:57;23.70;9.30
3402;DHT22;1714;49.756;8.610;2022-07-06T16:43:59;23.40;5.80
3402;DHT22;1714;49.756;8.610;2022-07-06T16:54:01;23.30;5.90
3402;DHT22;1714;49.756;8.610;2022-07-06T17:04:03;23.40;6.00
3402;DHT22;1714;49.756;8.610;2022-07-06T17:14:04;23.10;5.60
3402;DHT22;1714;49.756;8.610;2022-07-06T17:24:07;22.90;6.30
3402;DHT22;1714;49.756;8.610;2022-07-06T17:34:08;22.60;5.40
3402;DHT22;1714;49.756;8.610;2022-07-06T17:44:10;22.30;5.90
3402;DHT22;1714;49.756;8.610;2022-07-06T17:54:12;22.20;7.00
3402;DHT22;1714;49.756;8.610;2022-07-06T18:04:14;21.90;7.90
3402;DHT22;1714;49.756;8.610;2022-07-06T18:14:15;21.70;7.40
3402;DHT22;1714;49.756;8.610;2022-07-06T18:24:17;21.50;8.50
3402;DHT22;1714;49.756;8.610;2022-07-06T18:34:18;21.30;8.40
3402;DHT22;1714;49.756;8.610;2022-07-06T18:44:20;21.10;9.70
3402;DHT22;1714;49.756;8.610;2022-07-06T18:54:23;20.90;12.10
3402;DHT22;1714;49.756;8.610;2022-07-06T19:04:25;20.70;12.70
3402;DHT22;1714;49.756;8.610;2022-07-06T19:14:28;20.50;11.90
3402;DHT22;1714;49.756;8.610;2022-07-06T19:24:29;20.10;15.50
3402;DHT22;1714;49.756;8.610;2022-07-06T19:34:30;19.70;16.70
3402;DHT22;1714;49.756;8.610;2022-07-06T19:44:32;19.60;17.00
3402;DHT22;1714;49.756;8.610;2022-07-06T19:54:34;19.10;16.80
3402;DHT22;1714;49.756;8.610;2022-07-06T20:04:35;18.90;16.70
3402;DHT22;1714;49.756;8.610;2022-07-06T20:14:36;18.70;18.20
3402;DHT22;1714;49.756;8.610;2022-07-06T20:24:38;18.40;18.30
3402;DHT22;1714;49.756;8.610;2022-07-06T20:34:41;18.30;18.90
3402;DHT22;1714;49.756;8.610;2022-07-06T20:44:42;18.30;18.10
3402;DHT22;1714;49.756;8.610;2022-07-06T20:54:49;18.00;18.70
3402;DHT22;1714;49.756;8.610;2022-07-06T21:04:57;17.90;19.00
3402;DHT22;1714;49.756;8.610;2022-07-06T21:14:59;17.70;20.30
3402;DHT22;1714;49.756;8.610;2022-07-06T21:25:01;17.60;20.00
3402;DHT22;1714;49.756;8.610;2022-07-06T21:35:02;17.50;19.80
3402;DHT22;1714;49.756;8.610;2022-07-06T21:45:04;17.30;23.00
3402;DHT22;1714;49.756;8.610;2022-07-06T21:55:06;17.40;21.40
3402;DHT22;1714;49.756;8.610;2022-07-06T22:05:08;17.30;23.30
3402;DHT22;1714;49.756;8.610;2022-07-06T22:15:10;17.70;20.80
3402;DHT22;1714;49.756;8.610;2022-07-06T22:25:11;17.40;22.90
3402;DHT22;1714;49.756;8.610;2022-07-06T22:35:13;17.50;21.70
3402;DHT22;1714;49.756;8.610;2022-07-06T22:45:14;17.40;22.40
3402;DHT22;1714;49.756;8.610;2022-07-06T22:55:16;17.30;25.60
3402;DHT22;1714;49.756;8.610;2022-07-06T23:05:17;17.50;23.90
3402;DHT22;1714;49.756;8.610;2022-07-06T23:15:19;17.40;26.00
3402;DHT22;1714;49.756;8.610;2022-07-06T23:25:20;17.40;26.70
3402;DHT22;1714;49.756;8.610;2022-07-06T23:35:21;17.60;25.60
3402;DHT22;1714;49.756;8.610;2022-07-06T23:45:22;17.60;25.20
3402;DHT22;1714;49.756;8.610;2022-07-06T23:55:24;17.50;24.50
